Time;durP1;ratioP1;P1;durP2;ratioP2;P2;SDS_P1;SDS_P2;PMS_P1;PMS_P2;Temp;Humidity;BMP_temperature;BMP_pressure;BME280_temperature;BME280_humidity;BME280_pressure;Samples;Min_cycle;Max_cycle;Signal;HPM_P1;HPM_P2
2023/03/06 00:00:53;;;;;;;21.40;9.20;;;;;;;10.67;91.88;100727.31;5095549;28;20032;-53
2023/03/06 00:03:19;;;;;;;20.17;10.63;;;;;;;10.56;94.57;100722.50;5097891;28;20028;-53
2023/03/06 00:05:44;;;;;;;19.90;10.18;;;;;;;10.57;94.40;100724.16;5095717;28;20047;-52
2023/03/06 00:08:10;;;;;;;23.67;10.77;;;;;;;10.56;94.30;100714.47;5095141;28;20039;-52
2023/03/06 00:10:36;;;;;;;24.90;10.20;;;;;;;10.44;95.48;100716.88;5095366;28;20032;-49
2023/03/06 00:13:05;;;;;;;21.52;9.85;;;;;;;10.16;98.33;100713.22;5078541;28;20096;-51
2023/03/06 00:15:31;;;;;;;25.92;9.80;;;;;;;9.90;99.72;100717.34;5094902;28;20059;-52
2023/03/06 00:17:57;;;;;;;;;;;;;;;10.13;98.96;100702.09;5106252;28;20051;-52
2023/03/06 00:20:24;;;;;;;18.07;9.03;;;;;;;9.97;99.78;100706.69;5095507;28;19939;-50
2023/03/06 00:22:50;;;;;;;24.95;11.45;;;;;;;9.92;100.00;100700.28;5094891;28;20032;-49
2023/03/06 00:25:18;;;;;;;26.02;10.50;;;;;;;9.72;100.00;100698.31;5094732;28;20044;-48
2023/03/06 00:27:44;;;;;;;20.00;10.50;;;;;;;10.11;99.44;100702.28;5095029;28;20025;-52
2023/03/06 00:30:12;;;;;;;23.80;12.07;;;;;;;9.75;100.00;100696.06;5079431;28;20121;-50
2023/03/06 00:32:41;;;;;;;26.42;10.98;;;;;;;9.74;100.00;100693.59;5095679;28;20054;-51
2023/03/06 00:35:07;;;;;;;21.00;11.25;;;;;;;9.63;100.00;100691.44;5100605;28;20126;-49
2023/03/06 00:37:33;;;;;;;25.60;11.13;;;;;;;9.60;100.00;100693.47;5094309;28;20045;-52
2023/03/06 00:39:59;;;;;;;21.50;10.60;;;;;;;9.86;100.00;100691.22;5077731;28;20055;-51
2023/03/06 00:42:24;;;;;;;23.20;11.83;;;;;;;9.76;100.00;100691.56;5095176;28;20040;-49
2023/03/06 00:44:50;;;;;;;23.85;11.23;;;;;;;9.64;100.00;100687.75;5096692;28;20025;-50
2023/03/06 00:47:16;;;;;;;23.85;11.65;;;;;;;9.24;100.00;100677.53;5097698;28;20056;-48
2023/03/06 00:49:43;;;;;;;25.43;12.80;;;;;;;9.88;100.00;100687.31;5077112;28;20032;-49
2023/03/06 00:52:08;;;;;;;21.95;11.43;;;;;;;9.87;100.00;100676.84;5094855;28;20028;-50
2023/03/06 00:54:34;;;;;;;24.50;12.20;;;;;;;9.85;100.00;100674.34;5078463;28;20108;-50
2023/03/06 00:56:59;;;;;;;22.70;12.37;;;;;;;9.67;100.00;100671.34;5094382;28;20039;-51
2023/03/06 00:59:26;;;;;;;22.33;11.15;;;;;;;9.73;100.00;100671.41;5078864;28;20108;-49
2023/03/06 01:01:52;;;;;;;20.50;10.68;;;;;;;9.42;100.00;100669.91;5090977;28;20037;-48
2023/03/06 01:04:18;;;;;;;26.85;13.40;;;;;;;9.27;100.00;100667.31;5092784;28;20039;-48
2023/03/06 01:06:44;;;;;;;24.98;12.57;;;;;;;9.53;100.00;100670.41;5093706;28;20048;-51
2023/03/06 01:09:09;;;;;;;26.13;13.03;;;;;;;9.55;100.00;100663.03;5077589;28;20024;-49
2023/03/06 01:11:34;;;;;;;23.63;12.67;;;;;;;9.57;100.00;100659.16;5078412;28;20069;-50
2023/03/06 01:14:00;;;;;;;29.47;12.97;;;;;;;9.29;100.00;100654.63;5092352;28;20062;-50
2023/03/06 01:16:26;;;;;;;27.40;14.17;;;;;;;8.91;100.00;100656.72;5080315;28;20033;-49
2023/03/06 01:18:51;;;;;;;21.70;10.88;;;;;;;8.99;100.00;100646.72;5091538;28;20059;-51
2023/03/06 01:21:17;;;;;;;26.83;14.20;;;;;;;8.69;100.00;100646.81;5095621;28;20036;-54
2023/03/06 01:23:42;;;;;;;25.95;13.13;;;;;;;8.45;100.00;100640.75;5094079;28;20260;-49
2023/03/06 01:26:08;;;;;;;26.77;14.40;;;;;;;8.54;100.00;100636.19;5077453;28;20063;-49
2023/03/06 01:28:36;;;;;;;28.37;13.43;;;;;;;8.63;100.00;100636.91;5095142;28;20029;-54
2023/03/06 01:31:03;;;;;;;32.40;13.05;;;;;;;8.61;100.00;100631.75;5062603;28;20036;-47
2023/03/06 01:33:29;;;;;;;28.65;13.15;;;;;;;9.13;100.00;100620.19;5094725;28;20032;-49
2023/03/06 01:35:55;;;;;;;28.15;14.27;;;;;;;8.49;100.00;100627.91;5073017;28;20063;-49
2023/03/06 01:38:21;;;;;;;32.00;14.87;;;;;;;8.82;100.00;100622.13;5078809;28;20040;-50
2023/03/06 01:40:47;;;;;;;32.50;15.52;;;;;;;8.81;100.00;100617.81;5076226;28;20036;-49
2023/03/06 01:43:25;;;;;;;34.17;15.57;;;;;;;9.15;100.00;100616.31;5075257;28;20048;-51
2023/03/06 01:45:50;;;;;;;35.22;15.93;;;;;;;8.68;100.00;100617.69;5077384;28;20051;-48
2023/03/06 01:48:18;;;;;;;32.13;15.23;;;;;;;8.37;100.00;100616.91;5075537;28;20064;-51
2023/03/06 01:50:45;;;;;;;32.05;15.48;;;;;;;8.68;100.00;100615.84;5075318;28;20036;-53
2023/03/06 01:53:11;;;;;;;35.00;14.13;;;;;;;8.50;100.00;100604.75;5077433;28;20793;-51
2023/03/06 01:55:38;;;;;;;31.65;15.02;;;;;;;8.70;100.00;100602.34;5074184;28;20055;-48
2023/03/06 01:58:07;;;;;;;27.98;14.18;;;;;;;8.74;100.00;100598.28;5076412;28;20097;-50
2023/03/06 02:00:33;;;;;;;31.83;13.32;;;;;;;8.50;100.00;100602.09;5073714;28;20037;-47
2023/03/06 02:03:06;;;;;;;30.33;14.18;;;;;;;8.43;100.00;100616.13;5075190;28;20119;-50
2023/03/06 02:05:37;;;;;;;28.65;14.05;;;;;;;8.92;100.00;100605.81;5074578;28;20043;-48
2023/03/06 02:08:04;;;;;;;34.35;14.50;;;;;;;9.04;100.00;100603.47;5079416;28;20035;-49
2023/03/06 02:10:30;;;;;;;27.05;13.45;;;;;;;9.15;100.00;100605.66;5082241;28;20058;-50
2023/03/06 02:12:55;;;;;;;28.97;14.93;;;;;;;8.80;100.00;100607.34;5076506;28;20088;-49
2023/03/06 02:15:24;;;;;;;36.47;16.20;;;;;;;9.02;100.00;100608.19;5076130;28;20307;-52
2023/03/06 02:17:52;;;;;;;35.17;15.93;;;;;;;9.41;100.00;100603.38;5075543;28;20040;-49
2023/03/06 02:20:42;;;;;;;27.88;13.02;;;;;;;9.23;100.00;100604.69;5060132;28;20069;-53
2023/03/06 02:23:25;;;;;;;38.65;17.83;;;;;;;9.31;100.00;100609.03;5077468;28;20029;-52
2023/03/06 02:25:52;;;;;;;41.63;16.23;;;;;;;9.11;100.00;100603.53;5072317;28;20044;-50
2023/03/06 02:28:20;;;;;;;38.03;18.42;;;;;;;8.89;100.00;100603.53;5080847;28;20044;-51
2023/03/06 02:30:48;;;;;;;38.10;18.23;;;;;;;8.58;100.00;100600.16;5076686;28;20121;-51
2023/03/06 02:33:17;;;;;;;37.08;18.85;;;;;;;8.54;100.00;100595.41;5080335;28;20048;-48
2023/03/06 02:35:49;;;;;;;39.03;17.95;;;;;;;8.80;100.00;100594.03;5110165;28;20061;-50
2023/03/06 02:38:18;;;;;;;42.25;17.63;;;;;;;8.63;100.00;100598.75;5100897;28;20058;-54
2023/03/06 02:40:47;;;;;;;38.45;17.02;;;;;;;8.63;100.00;100590.75;5083141;28;20031;-48
2023/03/06 02:43:15;;;;;;;33.08;15.95;;;;;;;8.42;100.00;100579.00;5098697;28;20047;-48
2023/03/06 02:45:47;;;;;;;35.35;16.17;;;;;;;8.29;100.00;100574.34;5084754;28;20032;-48
2023/03/06 02:48:14;;;;;;;33.40;15.77;;;;;;;8.32;100.00;100576.66;5099880;28;20040;-48
2023/03/06 02:50:41;;;;;;;31.67;15.45;;;;;;;8.30;100.00;100565.34;5096928;28;20067;-52
2023/03/06 02:53:07;;;;;;;36.45;15.48;;;;;;;8.26;100.00;100569.41;5080287;28;20062;-51
2023/03/06 02:55:34;;;;;;;27.80;14.35;;;;;;;8.72;100.00;100571.78;5096784;28;20036;-50
2023/03/06 02:58:00;;;;;;;30.50;14.15;;;;;;;8.60;100.00;100559.97;5093326;28;20124;-50
2023/03/06 03:00:26;;;;;;;;;;;;;;;8.05;100.00;100557.66;5082138;28;20028;-52
2023/03/06 03:02:53;;;;;;;28.17;14.60;;;;;;;8.15;100.00;100552.91;5082760;28;19916;-50
2023/03/06 03:05:19;;;;;;;29.15;13.98;;;;;;;8.31;100.00;100551.84;5095186;28;20058;-49
2023/03/06 03:07:49;;;;;;;32.10;14.23;;;;;;;8.39;100.00;100545.59;5081413;28;20036;-49
2023/03/06 03:10:15;;;;;;;27.50;13.02;;;;;;;8.78;100.00;100542.72;5086868;28;20092;-50
2023/03/06 03:12:41;;;;;;;35.85;14.00;;;;;;;8.73;100.00;100538.78;5097739;28;20088;-53
2023/03/06 03:15:07;;;;;;;30.17;13.80;;;;;;;8.87;100.00;100537.03;5080075;28;20051;-48
2023/03/06 03:17:38;;;;;;;28.17;13.98;;;;;;;8.58;100.00;100533.50;5080788;28;20096;-50
2023/03/06 03:20:06;;;;;;;33.72;15.15;;;;;;;8.70;100.00;100525.81;5092649;28;20028;-48
2023/03/06 03:22:32;;;;;;;39.13;15.45;;;;;;;8.77;100.00;100530.41;5098314;28;20029;-47
2023/03/06 03:24:57;;;;;;;28.97;14.17;;;;;;;8.77;100.00;100522.41;5083023;28;20031;-50
2023/03/06 03:27:23;;;;;;;29.23;14.38;;;;;;;8.52;100.00;100523.59;5085187;28;20044;-49
2023/03/06 03:29:49;;;;;;;28.13;13.50;;;;;;;8.43;100.00;100517.53;5106078;28;20047;-48
2023/03/06 03:32:15;;;;;;;27.45;14.43;;;;;;;8.62;100.00;100517.97;5079890;28;20032;-51
2023/03/06 03:34:41;;;;;;;30.17;13.35;;;;;;;8.54;100.00;100512.78;5084585;28;20047;-49
2023/03/06 03:37:07;;;;;;;34.80;14.03;;;;;;;8.40;100.00;100501.09;5068904;28;20109;-52
2023/03/06 03:39:33;;;;;;;32.22;13.35;;;;;;;8.59;100.00;100505.81;5059437;28;20064;-49
2023/03/06 03:42:01;;;;;;;28.23;12.82;;;;;;;8.60;100.00;100502.16;5054852;28;20040;-50
2023/03/06 03:44:27;;;;;;;29.15;12.00;;;;;;;8.61;100.00;100503.78;5060356;28;20029;-49
2023/03/06 03:46:53;;;;;;;27.67;12.57;;;;;;;8.74;100.00;100496.94;5059107;28;20056;-50
2023/03/06 03:49:21;;;;;;;25.90;11.38;;;;;;;8.44;100.00;100500.53;5061252;28;20036;-50
2023/03/06 03:51:47;;;;;;;23.73;11.23;;;;;;;8.27;100.00;100496.44;5056345;28;20092;-50
2023/03/06 03:54:12;;;;;;;36.00;11.97;;;;;;;8.23;100.00;100493.34;5060170;28;20033;-47
2023/03/06 03:56:43;;;;;;;23.88;12.02;;;;;;;8.57;100.00;100502.53;5059330;28;20041;-51
2023/03/06 03:59:14;;;;;;;30.15;11.65;;;;;;;8.07;100.00;100491.72;5059393;28;20088;-49
2023/03/06 04:01:50;;;;;;;29.38;12.13;;;;;;;8.46;100.00;100492.34;5062175;28;20104;-49
2023/03/06 04:04:17;;;;;;;28.23;11.85;;;;;;;8.62;100.00;100485.97;5056965;28;20026;-50
2023/03/06 04:06:44;;;;;;;26.25;11.57;;;;;;;8.30;100.00;100478.25;5059847;28;20022;-50
2023/03/06 04:09:09;;;;;;;31.00;12.53;;;;;;;8.07;100.00;100478.41;5057924;28;20032;-52
2023/03/06 04:11:35;;;;;;;32.50;11.80;;;;;;;8.25;100.00;100482.50;5074164;28;20883;-48
2023/03/06 04:14:02;;;;;;;29.15;11.43;;;;;;;8.36;100.00;100481.16;5059343;28;20057;-51
2023/03/06 04:16:28;;;;;;;27.50;11.15;;;;;;;8.74;100.00;100480.94;5056245;28;20064;-51
2023/03/06 04:18:54;;;;;;;26.27;12.55;;;;;;;8.81;100.00;100481.00;5060139;28;20064;-52
2023/03/06 04:21:21;;;;;;;;;;;;;;;8.97;100.00;100474.56;5065586;28;20025;-49
2023/03/06 04:23:47;;;;;;;27.90;11.35;;;;;;;8.97;100.00;100479.91;5059626;28;19913;-50
2023/03/06 04:26:13;;;;;;;30.15;10.57;;;;;;;8.93;100.00;100468.78;5080094;28;20064;-50
2023/03/06 04:28:39;;;;;;;25.92;10.25;;;;;;;8.70;100.00;100469.84;5059856;28;20060;-50
2023/03/06 04:31:05;;;;;;;27.38;10.88;;;;;;;8.51;100.00;100471.31;5059166;28;20110;-51
2023/03/06 04:33:31;;;;;;;27.13;10.95;;;;;;;8.79;100.00;100472.38;5061191;28;20042;-50
2023/03/06 04:35:57;;;;;;;25.45;11.77;;;;;;;8.83;100.00;100466.44;5064351;28;20039;-53
2023/03/06 04:38:28;;;;;;;28.40;11.27;;;;;;;8.92;100.00;100466.34;5080562;28;20039;-48
2023/03/06 04:40:54;;;;;;;25.02;10.25;;;;;;;8.95;100.00;100466.75;5077139;28;20020;-47
2023/03/06 04:43:20;;;;;;;29.77;12.48;;;;;;;9.54;100.00;100466.50;5099754;28;20059;-51
2023/03/06 04:45:45;;;;;;;33.17;11.43;;;;;;;9.32;100.00;100462.09;5101897;28;20038;-55
2023/03/06 04:48:13;;;;;;;30.50;11.70;;;;;;;9.11;100.00;100457.66;5099791;28;20345;-49
2023/03/06 04:50:39;;;;;;;29.35;11.88;;;;;;;9.57;100.00;100458.94;5100397;28;20063;-54
2023/03/06 04:53:05;;;;;;;25.15;11.77;;;;;;;9.11;100.00;100451.47;5101402;28;20033;-48
2023/03/06 04:55:30;;;;;;;32.03;11.70;;;;;;;9.33;100.00;100453.06;5097451;28;20032;-48
2023/03/06 04:57:57;;;;;;;21.58;10.23;;;;;;;9.55;100.00;100452.13;5100231;28;20066;-50
2023/03/06 05:00:29;;;;;;;26.52;10.38;;;;;;;9.22;100.00;100450.91;5096907;28;20044;-49
2023/03/06 05:02:56;;;;;;;19.60;9.68;;;;;;;9.48;100.00;100454.78;5098568;28;20057;-48
2023/03/06 05:05:22;;;;;;;25.05;10.27;;;;;;;8.84;100.00;100446.78;5100343;28;20029;-51
2023/03/06 05:07:47;;;;;;;18.20;8.47;;;;;;;8.77;100.00;100447.75;5099142;28;20043;-53
2023/03/06 05:10:15;;;;;;;20.63;8.83;;;;;;;8.86;100.00;100443.91;5099246;28;20337;-50
2023/03/06 05:12:42;;;;;;;22.17;8.40;;;;;;;9.18;100.00;100445.16;5094347;28;20036;-53
2023/03/06 05:15:09;;;;;;;16.85;7.30;;;;;;;9.47;100.00;100445.13;5098831;28;20024;-53
2023/03/06 05:17:36;;;;;;;20.92;8.23;;;;;;;9.13;100.00;100430.75;5097296;28;20046;-49
2023/03/06 05:20:04;;;;;;;18.92;8.65;;;;;;;9.25;100.00;100439.88;5098761;28;20028;-52
2023/03/06 05:22:32;;;;;;;19.23;7.95;;;;;;;9.36;100.00;100445.66;5097734;28;20044;-52
2023/03/06 05:24:59;;;;;;;23.92;9.25;;;;;;;9.04;100.00;100438.94;5096682;28;20044;-49
2023/03/06 05:27:25;;;;;;;20.10;8.10;;;;;;;9.10;100.00;100437.31;5097323;28;20035;-49
2023/03/06 05:29:50;;;;;;;23.00;8.23;;;;;;;9.35;100.00;100438.69;5099038;28;20028;-50
2023/03/06 05:32:16;;;;;;;16.90;8.23;;;;;;;9.83;100.00;100438.69;5097573;28;20029;-50
2023/03/06 05:34:41;;;;;;;19.93;8.90;;;;;;;9.55;100.00;100434.28;5098241;28;20091;-52
2023/03/06 05:37:07;;;;;;;26.33;8.50;;;;;;;9.53;100.00;100435.47;5097649;28;20277;-49
2023/03/06 05:39:32;;;;;;;23.00;9.53;;;;;;;9.46;100.00;100435.47;5100547;28;20037;-47
2023/03/06 05:41:58;;;;;;;25.53;9.93;;;;;;;9.40;100.00;100433.56;5101709;28;20322;-52
2023/03/06 05:44:24;;;;;;;27.00;10.17;;;;;;;9.02;100.00;100429.47;5097091;28;20276;-50
2023/03/06 05:46:50;;;;;;;28.20;9.75;;;;;;;9.57;100.00;100432.22;5099751;28;20106;-50
2023/03/06 05:49:16;;;;;;;23.97;9.77;;;;;;;9.68;100.00;100428.16;5093939;28;20041;-52
2023/03/06 05:51:41;;;;;;;29.10;10.57;;;;;;;9.25;100.00;100425.69;5096497;28;20032;-50
2023/03/06 05:54:07;;;;;;;22.73;11.37;;;;;;;9.23;100.00;100423.25;5098648;28;20039;-51
2023/03/06 05:56:32;;;;;;;25.17;11.57;;;;;;;9.83;100.00;100424.53;5095056;28;20093;-53
2023/03/06 05:58:58;;;;;;;27.67;10.93;;;;;;;9.73;100.00;100420.38;5095924;28;20050;-54
2023/03/06 06:01:24;;;;;;;19.10;7.87;;;;;;;9.80;100.00;100431.09;5093073;28;20031;-49
2023/03/06 06:03:50;;;;;;;24.63;10.40;;;;;;;10.19;100.00;100420.69;5097888;28;20350;-49
2023/03/06 06:06:16;;;;;;;26.07;11.10;;;;;;;10.40;100.00;100425.09;5097838;28;20036;-53
2023/03/06 06:08:42;;;;;;;27.23;11.85;;;;;;;10.17;100.00;100428.94;5105910;28;20340;-52
2023/03/06 06:11:09;;;;;;;24.00;9.27;;;;;;;10.28;100.00;100432.03;5100959;28;20032;-50
2023/03/06 06:13:37;;;;;;;29.00;10.25;;;;;;;9.93;100.00;100435.66;5099465;28;20063;-51
2023/03/06 06:16:10;;;;;;;23.52;9.38;;;;;;;10.29;100.00;100441.69;5095080;28;20052;-50
2023/03/06 06:18:36;;;;;;;18.73;8.60;;;;;;;10.44;100.00;100446.88;5094004;28;20047;-47
2023/03/06 06:21:07;;;;;;;20.33;7.90;;;;;;;9.86;100.00;100451.63;5080450;28;20036;-47
2023/03/06 06:23:33;;;;;;;18.85;7.97;;;;;;;9.84;100.00;100451.03;5096610;28;20091;-48
2023/03/06 06:26:04;;;;;;;18.23;8.05;;;;;;;9.90;100.00;100446.72;5098263;28;20043;-48
2023/03/06 06:28:31;;;;;;;25.15;7.95;;;;;;;10.17;100.00;100444.13;5100218;28;20036;-51
2023/03/06 06:30:56;;;;;;;19.33;8.38;;;;;;;10.01;100.00;100443.47;5077898;28;20039;-51
2023/03/06 06:33:22;;;;;;;18.37;8.90;;;;;;;10.22;100.00;100438.19;5095267;28;20041;-50
2023/03/06 06:35:48;;;;;;;20.20;8.25;;;;;;;9.81;100.00;100432.72;5092963;28;20047;-49
2023/03/06 06:38:14;;;;;;;;;;;;;;;9.73;100.00;100433.72;5100021;28;20063;-48
2023/03/06 06:40:40;;;;;;;18.90;8.13;;;;;;;9.72;100.00;100424.06;5100153;28;19912;-50
2023/03/06 06:43:05;;;;;;;17.60;9.17;;;;;;;9.95;100.00;100427.44;5083063;28;20107;-50
2023/03/06 06:45:31;;;;;;;23.57;9.00;;;;;;;10.03;100.00;100422.75;5104923;28;20062;-47
2023/03/06 06:47:56;;;;;;;20.20;10.10;;;;;;;10.28;100.00;100426.69;5099964;28;20095;-47
2023/03/06 06:50:22;;;;;;;24.38;9.80;;;;;;;9.64;100.00;100434.94;5095086;28;20033;-47
2023/03/06 06:52:47;;;;;;;26.00;9.70;;;;;;;9.84;100.00;100426.19;5101097;28;20044;-50
2023/03/06 06:55:13;;;;;;;19.97;10.40;;;;;;;9.97;100.00;100436.06;5096940;28;20096;-54
2023/03/06 06:57:40;;;;;;;25.10;11.30;;;;;;;9.43;100.00;100433.19;5098568;28;20261;-52
2023/03/06 07:00:06;;;;;;;30.67;12.02;;;;;;;9.33;100.00;100433.53;5098500;28;20041;-50
2023/03/06 07:02:32;;;;;;;27.40;12.70;;;;;;;9.96;100.00;100435.25;5095598;28;20084;-49
2023/03/06 07:04:58;;;;;;;20.20;10.40;;;;;;;10.59;100.00;100435.97;5094570;28;20048;-52
2023/03/06 07:07:23;;;;;;;20.57;10.37;;;;;;;10.23;100.00;100439.84;5096548;28;20040;-48
2023/03/06 07:09:49;;;;;;;23.85;10.32;;;;;;;10.52;100.00;100437.84;5092593;28;20032;-50
2023/03/06 07:12:15;;;;;;;16.80;10.17;;;;;;;10.23;100.00;100434.50;5094854;28;20086;-49
2023/03/06 07:14:41;;;;;;;19.83;9.60;;;;;;;10.37;100.00;100441.47;5076476;28;20032;-55
2023/03/06 07:17:08;;;;;;;16.20;7.03;;;;;;;10.16;100.00;100443.31;5097332;28;20500;-50
2023/03/06 07:19:34;;;;;;;18.75;8.90;;;;;;;10.52;100.00;100449.38;5095735;28;20029;-49
2023/03/06 07:22:00;;;;;;;20.23;8.95;;;;;;;10.40;100.00;100445.59;5104268;28;20032;-50
2023/03/06 07:24:26;;;;;;;22.50;9.02;;;;;;;10.44;100.00;100447.72;5101434;28;20036;-52
2023/03/06 07:26:52;;;;;;;18.77;9.20;;;;;;;10.09;100.00;100450.47;5095235;28;20041;-49
2023/03/06 07:29:18;;;;;;;15.07;9.10;;;;;;;10.09;100.00;100450.47;5097363;28;20054;-47
2023/03/06 07:31:43;;;;;;;18.23;9.23;;;;;;;10.50;100.00;100455.94;5095986;28;20257;-51
2023/03/06 07:34:14;;;;;;;16.40;9.90;;;;;;;10.93;100.00;100460.88;5104689;28;20036;-54
2023/03/06 07:36:40;;;;;;;22.05;9.30;;;;;;;10.79;100.00;100453.88;5095680;28;20060;-52
2023/03/06 07:39:07;;;;;;;20.83;9.23;;;;;;;11.29;100.00;100459.56;5095959;28;20044;-49
2023/03/06 07:41:33;;;;;;;15.48;9.02;;;;;;;11.00;100.00;100458.19;5097086;28;20029;-51
2023/03/06 07:43:59;;;;;;;18.52;9.40;;;;;;;11.41;100.00;100459.75;5099558;28;20056;-50
2023/03/06 07:46:25;;;;;;;16.88;8.68;;;;;;;11.04;100.00;100456.75;5100679;28;20047;-49
2023/03/06 07:48:51;;;;;;;13.85;7.90;;;;;;;10.94;100.00;100456.34;5095130;28;20028;-50
2023/03/06 07:51:19;;;;;;;15.07;7.43;;;;;;;11.04;100.00;100456.75;5100828;28;20058;-50
2023/03/06 07:53:46;;;;;;;13.38;7.72;;;;;;;11.49;100.00;100456.03;5097403;28;20281;-52
2023/03/06 07:56:12;;;;;;;13.95;7.13;;;;;;;11.20;100.00;100452.81;5095355;28;20051;-48
2023/03/06 07:58:41;;;;;;;12.77;7.28;;;;;;;11.63;100.00;100451.44;5099194;28;20027;-54
2023/03/06 08:01:11;;;;;;;13.70;7.95;;;;;;;11.75;100.00;100457.78;5095711;28;20036;-50
2023/03/06 08:03:37;;;;;;;12.02;5.97;;;;;;;11.33;100.00;100454.63;5098848;28;20031;-51
2023/03/06 08:06:14;;;;;;;11.20;5.87;;;;;;;11.67;100.00;100462.56;5095243;28;20036;-51
2023/03/06 08:08:41;;;;;;;7.53;4.25;;;;;;;11.67;100.00;100458.03;5096686;28;20300;-51
2023/03/06 08:11:07;;;;;;;6.30;4.05;;;;;;;11.64;100.00;100460.31;5080695;28;20040;-52
2023/03/06 08:13:33;;;;;;;9.52;4.93;;;;;;;11.91;100.00;100461.84;5100946;28;20036;-50
2023/03/06 08:15:59;;;;;;;7.95;4.72;;;;;;;12.21;99.19;100465.00;5097117;28;20046;-53
2023/03/06 08:18:26;;;;;;;11.77;5.57;;;;;;;12.32;98.81;100469.69;5100176;28;20041;-53
2023/03/06 08:21:22;;;;;;;9.57;4.57;;;;;;;11.89;99.21;100469.28;5099362;28;20044;-50
2023/03/06 08:23:49;;;;;;;7.72;4.47;;;;;;;11.97;99.54;100468.22;5074925;28;20038;-50
2023/03/06 08:26:20;;;;;;;10.25;5.30;;;;;;;11.78;99.58;100467.28;5095934;28;20070;-50
2023/03/06 08:28:45;;;;;;;8.77;5.38;;;;;;;12.15;99.57;100472.88;5095693;28;20040;-52
2023/03/06 08:31:18;;;;;;;6.97;4.43;;;;;;;12.25;98.90;100467.06;5096330;28;20035;-50
2023/03/06 08:33:44;;;;;;;6.43;4.25;;;;;;;12.42;96.34;100472.72;5092643;28;20524;-51
2023/03/06 08:36:09;;;;;;;8.00;3.80;;;;;;;12.52;94.05;100464.19;5094502;28;20049;-53
2023/03/06 08:38:34;;;;;;;8.20;3.90;;;;;;;12.59;92.31;100467.66;5093870;28;20036;-48
2023/03/06 08:41:00;;;;;;;7.60;3.90;;;;;;;12.96;91.18;100464.25;5089828;28;20032;-51
2023/03/06 08:43:25;;;;;;;4.43;2.93;;;;;;;13.31;89.50;100466.38;5093335;28;20062;-51
2023/03/06 08:45:55;;;;;;;4.87;3.07;;;;;;;13.52;88.74;100463.53;5089007;28;20051;-49
2023/03/06 08:48:21;;;;;;;7.47;3.88;;;;;;;13.63;88.20;100465.44;5095939;28;20028;-48
2023/03/06 08:50:47;;;;;;;6.73;3.37;;;;;;;13.80;88.84;100478.28;5095609;28;20099;-50
2023/03/06 08:53:13;;;;;;;4.57;2.55;;;;;;;13.94;87.21;100473.56;5094010;28;20051;-50
2023/03/06 08:55:38;;;;;;;4.40;2.83;;;;;;;14.10;86.53;100475.63;5101543;28;20100;-49
2023/03/06 08:58:04;;;;;;;5.57;2.77;;;;;;;14.01;83.65;100477.81;5091570;28;20032;-50
2023/03/06 09:00:30;;;;;;;5.60;2.87;;;;;;;14.61;82.22;100470.72;5094976;28;20336;-50
2023/03/06 09:02:56;;;;;;;3.50;2.25;;;;;;;15.09;77.86;100464.59;5088033;28;20281;-51
2023/03/06 09:05:21;;;;;;;3.23;2.30;;;;;;;15.26;75.76;100481.69;5096439;28;20092;-49
2023/03/06 09:07:47;;;;;;;7.18;2.85;;;;;;;15.89;73.21;100479.22;5096458;28;20062;-52
2023/03/06 09:10:15;;;;;;;3.67;1.97;;;;;;;16.33;71.70;100476.00;5091693;28;20040;-50
2023/03/06 09:12:41;;;;;;;2.33;1.73;;;;;;;17.02;68.67;100479.56;5093190;28;20036;-50
2023/03/06 09:15:07;;;;;;;3.27;1.63;;;;;;;17.34;68.45;100476.25;5094875;28;20345;-49
2023/03/06 09:17:33;;;;;;;2.47;1.25;;;;;;;16.70;64.84;100477.41;5094775;28;20039;-50
2023/03/06 09:19:58;;;;;;;1.97;1.20;;;;;;;16.47;64.89;100473.81;5096906;28;20091;-51
2023/03/06 09:22:24;;;;;;;10.27;2.70;;;;;;;17.70;63.61;100485.84;5093683;28;20269;-51
2023/03/06 09:24:49;;;;;;;3.47;1.47;;;;;;;19.08;60.62;100478.53;5093040;28;20273;-49
2023/03/06 09:27:15;;;;;;;2.20;1.30;;;;;;;20.17;57.54;100472.47;5098997;28;20036;-52
2023/03/06 09:29:40;;;;;;;4.90;1.30;;;;;;;20.68;53.52;100476.31;5094084;28;20020;-51
2023/03/06 09:32:06;;;;;;;1.47;0.90;;;;;;;21.26;51.14;100483.31;5079913;28;20095;-50
2023/03/06 09:34:31;;;;;;;1.85;1.08;;;;;;;21.50;47.84;100490.88;5092215;28;20034;-49
2023/03/06 09:36:58;;;;;;;2.72;1.50;;;;;;;21.88;47.03;100490.47;5092993;28;20112;-50
2023/03/06 09:39:25;;;;;;;2.13;1.33;;;;;;;21.54;47.78;100485.66;5097984;28;20037;-54
2023/03/06 09:41:51;;;;;;;1.40;0.97;;;;;;;21.68;45.58;100485.91;5094683;28;20043;-53
2023/03/06 09:44:21;;;;;;;1.37;1.00;;;;;;;20.75;46.51;100485.00;5097871;28;20024;-52
2023/03/06 09:47:23;;;;;;;2.20;0.80;;;;;;;20.34;45.62;100480.38;5093648;28;20039;-52
2023/03/06 09:49:57;;;;;;;1.20;0.70;;;;;;;21.19;44.82;100477.34;5099077;28;20062;-49
2023/03/06 09:52:28;;;;;;;2.07;0.90;;;;;;;20.35;45.39;100484.72;5093426;28;20047;-50
2023/03/06 09:55:07;;;;;;;2.40;1.07;;;;;;;21.49;43.88;100486.53;5099111;28;20032;-54
2023/03/06 09:57:56;;;;;;;0.90;0.80;;;;;;;21.81;43.34;100484.50;5096672;28;20032;-50
2023/03/06 10:00:27;;;;;;;2.08;0.75;;;;;;;22.20;42.48;100484.56;5085518;28;20041;-52
2023/03/06 10:03:05;;;;;;;2.57;0.90;;;;;;;21.82;43.00;100486.94;5097255;28;20054;-51
2023/03/06 10:06:00;;;;;;;2.70;0.60;;;;;;;22.49;41.04;100486.53;5098067;28;20056;-50
2023/03/06 10:08:37;;;;;;;1.80;0.77;;;;;;;21.10;41.34;100487.16;5077891;28;20056;-50
2023/03/06 10:11:09;;;;;;;3.13;1.17;;;;;;;21.23;41.91;100481.16;5095497;28;20035;-55
2023/03/06 10:13:37;;;;;;;0.70;0.67;;;;;;;20.61;41.08;100492.06;5097324;28;20043;-54
2023/03/06 10:16:13;;;;;;;0.80;0.63;;;;;;;19.90;43.25;100483.50;5095605;28;20071;-49
2023/03/06 10:18:39;;;;;;;1.83;0.90;;;;;;;19.72;43.52;100484.81;5099348;28;20053;-53
2023/03/06 10:21:23;;;;;;;2.25;0.90;;;;;;;20.96;42.99;100484.19;5094894;28;20048;-54
2023/03/06 10:23:55;;;;;;;3.37;1.30;;;;;;;20.81;42.32;100485.03;5095602;28;20067;-52
2023/03/06 10:26:31;;;;;;;2.23;1.20;;;;;;;20.60;42.86;100479.56;5090933;28;20050;-51
2023/03/06 10:29:17;;;;;;;2.63;0.70;;;;;;;20.20;41.66;100477.38;5096392;28;20028;-49
2023/03/06 10:31:47;;;;;;;6.10;1.60;;;;;;;21.97;40.43;100493.41;5100807;28;20032;-49
2023/03/06 10:34:29;;;;;;;3.47;0.90;;;;;;;21.06;41.82;100487.72;5095952;28;20045;-50
2023/03/06 10:36:57;;;;;;;1.70;0.50;;;;;;;21.76;40.24;100482.63;5095683;28;20039;-56
2023/03/06 10:39:22;;;;;;;1.30;0.77;;;;;;;20.70;39.90;100490.44;5094646;28;20055;-50
2023/03/06 10:41:48;;;;;;;1.23;0.75;;;;;;;19.90;42.12;100484.34;5076794;28;20039;-53
2023/03/06 10:44:14;;;;;;;;;;;;;;;20.38;41.43;100483.38;5094363;28;20095;-52
2023/03/06 10:46:45;;;;;;;1.53;0.60;;;;;;;20.98;41.10;100480.09;5096447;28;19912;-51
2023/03/06 10:49:13;;;;;;;2.33;0.67;;;;;;;20.03;40.69;100491.19;5098389;28;20056;-49
2023/03/06 10:52:01;;;;;;;1.53;0.93;;;;;;;18.85;42.60;100485.91;5096942;28;20057;-54
2023/03/06 10:54:29;;;;;;;4.70;1.00;;;;;;;19.08;42.92;100478.53;5104915;28;20085;-51
2023/03/06 10:56:55;;;;;;;2.17;0.90;;;;;;;19.01;42.67;100473.31;5100334;28;20079;-51
2023/03/06 10:59:27;;;;;;;2.25;0.73;;;;;;;18.79;44.52;100471.50;5097854;28;20025;-51
2023/03/06 11:02:18;;;;;;;2.10;0.90;;;;;;;18.68;43.85;100477.94;5106772;28;20101;-51
2023/03/06 11:04:49;;;;;;;3.93;1.17;;;;;;;17.22;45.04;100467.41;5099055;28;20280;-50
2023/03/06 11:07:18;;;;;;;5.03;1.50;;;;;;;17.19;45.68;100474.16;5098925;28;20265;-52
2023/03/06 11:09:57;;;;;;;1.60;0.90;;;;;;;16.89;46.67;100477.97;5098027;28;20324;-53
2023/03/06 11:12:36;;;;;;;2.67;1.40;;;;;;;16.62;47.50;100467.84;5098876;28;20272;-52
2023/03/06 11:15:05;;;;;;;8.23;2.93;;;;;;;16.07;48.08;100463.91;5077715;28;20289;-48
2023/03/06 11:17:31;;;;;;;6.70;2.17;;;;;;;15.87;48.38;100465.13;5097706;28;20297;-50